createdAt,value
2022-11-30T00:01:51.781Z,15.70
2022-11-30T00:04:21.291Z,15.64
2022-11-30T00:06:50.730Z,15.56
2022-11-30T00:09:20.518Z,15.54
2022-11-30T00:11:50.205Z,15.50
2022-11-30T00:14:21.222Z,15.51
2022-11-30T00:16:51.108Z,15.50
2022-11-30T00:19:20.528Z,15.56
2022-11-30T00:21:50.257Z,15.62
2022-11-30T00:24:19.845Z,15.64
2022-11-30T00:26:50.653Z,15.69
2022-11-30T00:29:20.401Z,15.52
2022-11-30T00:31:49.875Z,15.53
2022-11-30T00:34:19.199Z,15.52
2022-11-30T00:36:51.320Z,15.47
2022-11-30T00:39:21.071Z,15.49
2022-11-30T00:41:50.717Z,15.45
2022-11-30T00:44:20.454Z,15.41
2022-11-30T00:46:49.830Z,15.36
2022-11-30T00:49:19.428Z,15.37
2022-11-30T00:51:48.813Z,15.39
2022-11-30T00:54:20.098Z,15.34
2022-11-30T00:56:49.770Z,15.31
2022-11-30T00:59:19.781Z,15.33
2022-11-30T01:01:49.327Z,15.36
2022-11-30T01:04:19.025Z,15.31
2022-11-30T01:06:48.928Z,15.32
2022-11-30T01:09:18.383Z,15.33
2022-11-30T01:11:48.877Z,15.27
2022-11-30T01:14:18.246Z,15.25
2022-11-30T01:16:50.837Z,15.27
2022-11-30T01:19:24.217Z,15.28
2022-11-30T01:21:53.853Z,15.27
2022-11-30T01:24:24.562Z,15.30
2022-11-30T01:26:54.294Z,15.24
2022-11-30T01:29:23.849Z,15.20
2022-11-30T01:31:53.926Z,15.22
2022-11-30T01:34:24.007Z,15.20
2022-11-30T01:36:53.738Z,15.23
2022-11-30T01:39:23.578Z,15.21
2022-11-30T01:41:54.809Z,15.18
2022-11-30T01:44:28.043Z,15.17
2022-11-30T01:47:10.168Z,15.31
2022-11-30T01:49:45.904Z,15.27
2022-11-30T01:52:34.271Z,15.35
2022-11-30T01:55:18.055Z,15.29
2022-11-30T01:58:12.464Z,15.33
2022-11-30T02:00:45.730Z,15.32
2022-11-30T02:03:27.513Z,15.33
2022-11-30T02:05:56.907Z,15.18
2022-11-30T02:08:27.123Z,15.14
2022-11-30T02:11:01.714Z,15.31
2022-11-30T02:13:37.911Z,15.23
2022-11-30T02:16:16.439Z,15.39
2022-11-30T02:19:01.035Z,15.39
2022-11-30T02:21:45.879Z,15.42
2022-11-30T02:24:36.783Z,15.48
2022-11-30T02:27:26.270Z,15.34
2022-11-30T02:30:18.562Z,15.48
2022-11-30T02:32:53.925Z,15.56
2022-11-30T02:35:29.087Z,15.63
2022-11-30T02:38:02.691Z,15.61
2022-11-30T02:40:32.210Z,15.55
2022-11-30T02:43:06.538Z,15.65
2022-11-30T02:46:03.086Z,15.64
2022-11-30T02:48:58.639Z,15.75
2022-11-30T02:51:31.379Z,15.72
2022-11-30T02:54:04.042Z,15.81
2022-11-30T02:56:34.930Z,15.85
2022-11-30T02:59:05.288Z,15.84
2022-11-30T03:01:34.835Z,15.93
2022-11-30T03:04:04.847Z,15.97
2022-11-30T03:06:34.298Z,16.05
2022-11-30T03:09:05.175Z,16.18
2022-11-30T03:11:35.716Z,16.24
2022-11-30T03:14:06.127Z,16.31
2022-11-30T03:16:35.810Z,16.39
2022-11-30T03:19:08.336Z,16.56
2022-11-30T03:21:40.007Z,16.53
2022-11-30T03:24:09.972Z,16.63
2022-11-30T03:26:39.996Z,16.71
2022-11-30T03:29:09.538Z,16.80
2022-11-30T03:31:39.156Z,16.86
2022-11-30T03:34:08.779Z,16.98
2022-11-30T03:36:38.765Z,17.03
2022-11-30T03:39:08.628Z,17.05
2022-11-30T03:41:38.876Z,17.15
2022-11-30T03:44:08.374Z,17.29
2022-11-30T03:46:39.322Z,17.41
2022-11-30T03:49:09.121Z,17.48
2022-11-30T03:51:40.970Z,17.62
2022-11-30T03:54:10.349Z,17.63
2022-11-30T03:56:39.820Z,17.69
2022-11-30T03:59:09.833Z,17.81
2022-11-30T04:01:41.984Z,17.86
2022-11-30T04:04:16.588Z,17.95
2022-11-30T04:06:46.123Z,18.05
2022-11-30T04:09:15.725Z,18.09
2022-11-30T04:11:45.407Z,18.19
2022-11-30T04:14:16.930Z,18.30
2022-11-30T04:16:46.633Z,18.37
2022-11-30T04:19:16.022Z,18.41
2022-11-30T04:21:47.099Z,18.58
2022-11-30T04:24:16.549Z,18.54
2022-11-30T04:26:50.875Z,18.60
2022-11-30T04:29:20.562Z,18.71
2022-11-30T04:31:50.449Z,18.79
2022-11-30T04:34:19.725Z,18.87
2022-11-30T04:36:54.845Z,18.90
2022-11-30T04:39:26.965Z,18.99
2022-11-30T04:41:56.754Z,19.12
2022-11-30T04:44:26.204Z,19.19
2022-11-30T04:46:58.585Z,19.18
2022-11-30T04:49:28.109Z,19.26
2022-11-30T04:51:57.532Z,19.33
2022-11-30T04:54:28.439Z,19.42
2022-11-30T04:56:58.215Z,19.53
2022-11-30T04:59:27.927Z,19.57
2022-11-30T05:01:57.772Z,19.67
2022-11-30T05:04:27.196Z,19.71
2022-11-30T05:06:57.221Z,19.72
2022-11-30T05:09:27.148Z,19.84
2022-11-30T05:11:56.632Z,19.94
2022-11-30T05:14:26.048Z,19.93
2022-11-30T05:16:57.798Z,20.01
2022-11-30T05:19:29.111Z,20.16
2022-11-30T05:22:01.377Z,20.22
2022-11-30T05:24:31.397Z,20.27
2022-11-30T05:27:07.718Z,20.31
2022-11-30T05:29:40.862Z,20.39
2022-11-30T05:32:10.484Z,20.54
2022-11-30T05:34:50.053Z,20.50
2022-11-30T05:37:25.766Z,20.60
2022-11-30T05:39:55.929Z,20.74
2022-11-30T05:42:25.799Z,20.82
2022-11-30T05:44:55.806Z,20.92
2022-11-30T05:47:25.173Z,20.94
2022-11-30T05:49:54.809Z,21.06
2022-11-30T05:52:25.316Z,21.17
2022-11-30T05:54:58.331Z,21.13
2022-11-30T05:57:27.799Z,21.26
2022-11-30T05:59:57.539Z,21.37
2022-11-30T06:02:28.507Z,21.39
2022-11-30T06:04:58.810Z,21.46
2022-11-30T06:07:28.933Z,21.52
2022-11-30T06:09:58.467Z,21.56
2022-11-30T06:12:28.649Z,21.69
2022-11-30T06:14:58.329Z,21.82
2022-11-30T06:17:28.109Z,21.83
2022-11-30T06:19:57.664Z,21.90
2022-11-30T06:22:29.780Z,21.99
2022-11-30T06:24:59.710Z,22.08
2022-11-30T06:27:33.136Z,22.12
2022-11-30T06:30:03.176Z,22.12
2022-11-30T06:32:32.975Z,22.13
2022-11-30T06:35:02.552Z,22.20
2022-11-30T06:37:35.330Z,22.24
2022-11-30T06:40:06.907Z,22.37
2022-11-30T06:42:38.456Z,22.49
2022-11-30T06:45:10.627Z,22.56
2022-11-30T06:47:40.737Z,22.61
2022-11-30T06:50:10.969Z,22.66
2022-11-30T06:52:41.054Z,22.80
2022-11-30T06:55:11.232Z,22.88
2022-11-30T06:57:40.956Z,22.91
2022-11-30T07:00:15.120Z,22.96
2022-11-30T07:02:45.549Z,22.97
2022-11-30T07:05:15.749Z,22.99
2022-11-30T07:07:45.902Z,23.06
2022-11-30T07:10:20.054Z,23.15
2022-11-30T07:12:51.879Z,23.18
2022-11-30T07:15:21.489Z,23.16
2022-11-30T07:17:52.523Z,23.25
2022-11-30T07:20:22.418Z,23.26
2022-11-30T07:22:52.027Z,23.28
2022-11-30T07:25:40.234Z,23.41
2022-11-30T07:28:10.002Z,23.42
2022-11-30T07:30:41.158Z,23.49
2022-11-30T07:33:10.971Z,23.31
2022-11-30T07:35:42.817Z,23.47
2022-11-30T07:38:15.739Z,23.54
2022-11-30T07:40:45.665Z,23.48
2022-11-30T07:43:18.706Z,23.60
2022-11-30T07:45:56.560Z,23.67
2022-11-30T07:48:26.541Z,23.51
2022-11-30T07:50:56.354Z,23.60
2022-11-30T07:53:27.410Z,23.68
2022-11-30T07:56:04.353Z,23.80
2022-11-30T07:58:34.202Z,23.71
2022-11-30T08:01:07.019Z,23.81
2022-11-30T08:03:38.152Z,23.85
2022-11-30T08:06:24.624Z,24.04
2022-11-30T08:08:58.143Z,23.96
2022-11-30T08:11:36.325Z,23.99
2022-11-30T08:14:08.223Z,23.95
2022-11-30T08:16:39.548Z,24.01
2022-11-30T08:19:09.368Z,23.98
2022-11-30T08:21:39.889Z,23.98
2022-11-30T08:24:17.104Z,24.10
2022-11-30T08:26:49.115Z,24.11
2022-11-30T08:29:18.673Z,24.05
2022-11-30T08:31:48.859Z,24.06
2022-11-30T08:34:18.285Z,24.10
2022-11-30T08:36:51.774Z,24.16
2022-11-30T08:39:23.398Z,24.21
2022-11-30T08:41:54.351Z,24.13
2022-11-30T08:44:25.506Z,24.14
2022-11-30T08:46:55.717Z,24.25
2022-11-30T08:49:25.880Z,24.25
2022-11-30T08:54:52.706Z,24.23
2022-11-30T08:57:23.468Z,24.26
2022-11-30T08:59:54.452Z,24.28
2022-11-30T09:02:28.030Z,24.18
2022-11-30T09:04:59.340Z,24.22
2022-11-30T09:07:28.837Z,24.36
2022-11-30T09:09:58.261Z,24.30
2022-11-30T09:12:30.663Z,24.35
2022-11-30T09:15:00.402Z,24.34
2022-11-30T09:17:30.671Z,24.31
2022-11-30T09:20:00.095Z,24.28
2022-11-30T09:22:32.988Z,24.26
2022-11-30T09:25:02.620Z,24.22
2022-11-30T09:27:35.780Z,24.35
2022-11-30T09:30:06.084Z,24.28
2022-11-30T09:32:36.170Z,24.29
2022-11-30T09:35:12.431Z,24.35
2022-11-30T09:37:42.517Z,24.31
2022-11-30T09:40:15.562Z,24.31
2022-11-30T09:42:50.851Z,24.37
2022-11-30T09:45:33.225Z,24.45
2022-11-30T09:48:34.207Z,24.43
2022-11-30T09:51:13.437Z,24.37
2022-11-30T09:54:09.002Z,24.44
2022-11-30T09:56:41.713Z,24.32
2022-11-30T09:59:34.307Z,24.41
2022-11-30T10:02:17.534Z,24.37
2022-11-30T10:04:50.957Z,24.25
2022-11-30T10:07:45.377Z,24.37
2022-11-30T10:11:01.730Z,24.37
2022-11-30T10:13:44.260Z,24.30
2022-11-30T10:16:31.881Z,24.44
2022-11-30T10:19:19.168Z,24.28
2022-11-30T10:22:24.898Z,24.25
2022-11-30T10:25:11.871Z,24.12
2022-11-30T10:28:38.616Z,24.30
2022-11-30T10:31:03.557Z,24.18
2022-11-30T10:33:44.638Z,24.21
2022-11-30T10:36:55.084Z,24.17
2022-11-30T10:39:36.131Z,24.10
2022-11-30T10:42:20.401Z,24.04
2022-11-30T10:45:03.066Z,23.98
2022-11-30T10:47:38.137Z,23.89
2022-11-30T10:50:08.820Z,23.80
2022-11-30T10:52:46.536Z,23.88
2022-11-30T10:55:21.137Z,23.79
2022-11-30T10:57:54.454Z,23.70
2022-11-30T11:00:24.301Z,23.61
2022-11-30T11:02:54.516Z,23.59
2022-11-30T11:05:30.160Z,23.58
2022-11-30T11:08:20.133Z,23.57
2022-11-30T11:10:53.188Z,23.53
2022-11-30T11:13:42.642Z,23.55
2022-11-30T11:16:15.642Z,23.37
2022-11-30T11:19:23.972Z,23.41
2022-11-30T11:21:55.270Z,23.10
2022-11-30T11:24:30.597Z,23.17
2022-11-30T11:27:02.068Z,22.98
2022-11-30T11:32:08.864Z,22.92
2022-11-30T11:34:39.680Z,22.90
2022-11-30T11:37:15.089Z,22.88
2022-11-30T11:39:47.938Z,22.73
2022-11-30T11:42:22.797Z,22.75
2022-11-30T11:44:56.790Z,22.58
2022-11-30T11:47:42.054Z,22.52
2022-11-30T11:50:58.230Z,22.39
2022-11-30T11:53:53.652Z,22.33
2022-11-30T11:56:41.435Z,22.18
2022-11-30T11:59:40.851Z,22.08
2022-11-30T12:02:14.118Z,21.84
2022-11-30T12:05:19.955Z,21.91
2022-11-30T12:08:14.413Z,21.76
2022-11-30T12:11:16.028Z,21.72
2022-11-30T12:13:48.729Z,21.48
2022-11-30T12:16:48.109Z,21.53
2022-11-30T12:19:24.266Z,21.39
2022-11-30T12:22:27.688Z,21.36
2022-11-30T12:25:14.536Z,21.28
2022-11-30T12:28:18.991Z,21.13
2022-11-30T12:31:01.697Z,21.15
2022-11-30T12:34:14.041Z,21.07
2022-11-30T12:36:58.464Z,20.91
2022-11-30T12:39:55.303Z,20.95
2022-11-30T12:42:43.639Z,20.81
2022-11-30T12:45:31.758Z,20.79
2022-11-30T12:48:31.355Z,20.73
2022-11-30T12:51:18.234Z,20.55
2022-11-30T12:53:55.099Z,20.57
2022-11-30T12:56:59.911Z,20.56
2022-11-30T12:59:45.276Z,20.45
2022-11-30T13:02:45.285Z,20.42
2022-11-30T13:05:24.071Z,20.34
2022-11-30T13:08:14.055Z,20.43
2022-11-30T13:10:56.058Z,20.40
2022-11-30T13:13:33.698Z,20.26
2022-11-30T13:16:07.474Z,20.14
2022-11-30T13:18:38.465Z,20.03
2022-11-30T13:21:18.944Z,20.06
2022-11-30T13:24:03.761Z,20.09
2022-11-30T13:26:47.749Z,20.08
2022-11-30T13:29:33.661Z,20.12
2022-11-30T13:32:49.030Z,20.09
2022-11-30T13:35:31.991Z,20.05
2022-11-30T13:41:10.180Z,19.78
2022-11-30T13:43:45.638Z,19.89
2022-11-30T13:46:24.916Z,19.76
2022-11-30T13:49:34.678Z,19.73
2022-11-30T13:52:22.604Z,19.59
2022-11-30T13:54:59.247Z,19.53
2022-11-30T13:57:33.893Z,19.51
2022-11-30T14:00:28.040Z,19.45
2022-11-30T14:03:17.119Z,19.38
2022-11-30T14:05:48.033Z,19.33
2022-11-30T14:08:19.878Z,19.26
2022-11-30T14:10:56.051Z,19.34
2022-11-30T14:13:33.039Z,19.30
2022-11-30T14:16:04.479Z,19.20
2022-11-30T14:18:47.135Z,19.25
2022-11-30T14:21:34.563Z,19.24
2022-11-30T14:24:20.982Z,19.17
2022-11-30T14:27:01.541Z,19.02
2022-11-30T14:29:39.236Z,19.05
2022-11-30T14:32:26.494Z,19.01
2022-11-30T14:35:10.050Z,19.02
2022-11-30T14:37:56.237Z,18.93
2022-11-30T14:40:31.394Z,18.93
2022-11-30T14:43:05.417Z,18.85
2022-11-30T14:45:36.144Z,18.76
2022-11-30T14:48:16.933Z,18.81
2022-11-30T14:50:52.278Z,18.78
2022-11-30T14:53:36.618Z,18.78
2022-11-30T14:56:53.641Z,18.86
2022-11-30T14:59:57.123Z,18.85
2022-11-30T15:02:39.824Z,18.76
2022-11-30T15:05:18.438Z,18.72
2022-11-30T15:07:48.676Z,18.55
2022-11-30T15:10:34.048Z,18.61
2022-11-30T15:13:04.925Z,18.45
2022-11-30T15:15:38.782Z,18.43
2022-11-30T15:18:19.655Z,18.57
2022-11-30T15:21:03.342Z,18.55
2022-11-30T15:23:33.033Z,18.47
2022-11-30T15:26:19.415Z,18.57
2022-11-30T15:28:59.210Z,18.55
2022-11-30T15:31:39.547Z,18.51
2022-11-30T15:34:33.080Z,18.49
2022-11-30T15:37:03.076Z,18.32
2022-11-30T15:39:33.744Z,18.30
2022-11-30T15:42:05.904Z,18.30
2022-11-30T15:44:42.647Z,18.30
2022-11-30T15:47:40.738Z,18.36
2022-11-30T15:50:31.171Z,18.36
2022-11-30T15:53:22.423Z,18.29
2022-11-30T15:55:55.149Z,18.24
2022-11-30T15:58:31.588Z,18.27
2022-11-30T16:01:01.348Z,18.13
2022-11-30T16:03:31.405Z,18.12
2022-11-30T16:06:03.651Z,18.19
2022-11-30T16:08:33.902Z,18.12
2022-11-30T16:11:07.655Z,18.07
2022-11-30T16:13:39.189Z,17.97
2022-11-30T16:16:29.314Z,18.15
2022-11-30T16:18:59.045Z,17.99
2022-11-30T16:21:28.755Z,17.99
2022-11-30T16:23:58.102Z,17.95
2022-11-30T16:26:49.811Z,17.98
2022-11-30T16:29:20.395Z,17.95
2022-11-30T16:31:50.265Z,17.92
2022-11-30T16:34:19.953Z,17.85
2022-11-30T16:36:49.594Z,17.88
2022-11-30T16:39:19.133Z,17.84
2022-11-30T16:41:48.613Z,17.81
2022-11-30T16:44:18.157Z,17.79
2022-11-30T16:46:50.311Z,17.79
2022-11-30T16:49:20.404Z,17.81
2022-11-30T16:51:50.000Z,17.79
2022-11-30T16:54:20.803Z,17.66
2022-11-30T16:56:50.328Z,17.65
2022-11-30T16:59:20.223Z,17.63
2022-11-30T17:01:54.874Z,17.73
2022-11-30T17:04:27.569Z,17.69
2022-11-30T17:07:02.222Z,17.62
2022-11-30T17:09:35.612Z,17.61
2022-11-30T17:12:04.835Z,17.79
2022-11-30T17:14:36.151Z,17.53
2022-11-30T17:17:05.758Z,17.53
2022-11-30T17:19:35.546Z,17.54
2022-11-30T17:22:05.358Z,17.53
2022-11-30T17:24:35.702Z,17.49
2022-11-30T17:27:06.894Z,17.48
2022-11-30T17:29:38.177Z,17.49
2022-11-30T17:32:07.822Z,17.44
2022-11-30T17:34:37.432Z,17.46
2022-11-30T17:37:07.425Z,17.41
2022-11-30T17:39:37.222Z,17.27
2022-11-30T17:42:07.325Z,17.26
2022-11-30T17:44:37.373Z,17.27
2022-11-30T17:47:06.950Z,17.30
2022-11-30T17:49:38.264Z,17.30
2022-11-30T17:52:08.123Z,17.35
2022-11-30T17:54:37.562Z,17.36
2022-11-30T17:57:07.271Z,17.31
2022-11-30T17:59:36.730Z,17.23
2022-11-30T18:02:06.496Z,17.17
2022-11-30T18:04:37.297Z,17.20
2022-11-30T18:07:07.547Z,17.13
2022-11-30T18:09:40.966Z,17.15
2022-11-30T18:12:13.963Z,17.09
2022-11-30T18:14:43.487Z,17.10
2022-11-30T18:17:12.810Z,17.11
2022-11-30T18:19:42.832Z,17.11
2022-11-30T18:22:13.626Z,16.96
2022-11-30T18:24:43.833Z,17.01
2022-11-30T18:27:13.569Z,17.01
2022-11-30T18:29:43.610Z,17.01
2022-11-30T18:32:13.353Z,17.03
2022-11-30T18:34:42.937Z,16.94
2022-11-30T18:37:12.463Z,16.96
2022-11-30T18:39:41.982Z,16.98
2022-11-30T18:42:12.608Z,17.03
2022-11-30T18:44:42.739Z,17.00
2022-11-30T18:47:12.532Z,17.01
2022-11-30T18:49:41.951Z,16.98
2022-11-30T18:52:12.061Z,17.01
2022-11-30T18:54:41.454Z,16.99
2022-11-30T18:57:10.739Z,17.00
2022-11-30T18:59:41.356Z,16.97
2022-11-30T19:02:11.077Z,16.93
2022-11-30T19:04:40.627Z,16.89
2022-11-30T19:07:10.777Z,16.79
2022-11-30T19:09:40.043Z,16.79
2022-11-30T19:12:09.644Z,16.79
2022-11-30T19:14:39.157Z,16.80
2022-11-30T19:17:08.859Z,16.78
2022-11-30T19:19:39.509Z,16.73
2022-11-30T19:22:09.529Z,16.70
2022-11-30T19:24:38.983Z,16.68
2022-11-30T19:27:08.593Z,16.58
2022-11-30T19:29:38.130Z,16.54
2022-11-30T19:32:08.238Z,16.59
2022-11-30T19:34:39.357Z,16.62
2022-11-30T19:37:09.429Z,16.54
2022-11-30T19:39:39.846Z,16.54
2022-11-30T19:42:09.356Z,16.54
2022-11-30T19:44:39.795Z,16.56
2022-11-30T19:47:09.230Z,16.59
2022-11-30T19:49:42.876Z,16.52
2022-11-30T19:52:12.860Z,16.48
2022-11-30T19:54:43.991Z,16.47
2022-11-30T19:57:13.577Z,16.42
2022-11-30T19:59:42.859Z,16.39
2022-11-30T20:02:13.531Z,16.45
2022-11-30T20:04:43.309Z,16.41
2022-11-30T20:07:13.816Z,16.45
2022-11-30T20:09:47.148Z,16.47
2022-11-30T20:12:16.954Z,16.39
2022-11-30T20:14:53.667Z,16.39
2022-11-30T20:17:24.206Z,16.37
2022-11-30T20:19:56.488Z,16.29
2022-11-30T20:22:26.008Z,16.25
2022-11-30T20:24:56.148Z,16.29
2022-11-30T20:27:26.219Z,16.30
2022-11-30T20:29:57.319Z,16.31
2022-11-30T20:32:27.816Z,16.28
2022-11-30T20:34:58.959Z,16.29
2022-11-30T20:37:28.400Z,16.34
2022-11-30T20:39:59.594Z,16.23
2022-11-30T20:42:32.345Z,16.19
2022-11-30T20:45:01.595Z,16.42
2022-11-30T20:47:34.959Z,16.23
2022-11-30T20:50:10.580Z,16.24
2022-11-30T20:52:40.231Z,16.05
2022-11-30T20:55:10.841Z,16.09
2022-11-30T20:57:40.107Z,16.04
2022-11-30T21:00:13.342Z,16.12
2022-11-30T21:02:43.047Z,16.10
2022-11-30T21:05:13.149Z,16.11
2022-11-30T21:07:43.006Z,16.12
2022-11-30T21:10:13.430Z,16.07
2022-11-30T21:12:43.454Z,16.07
2022-11-30T21:15:13.466Z,16.01
2022-11-30T21:17:42.826Z,15.97
2022-11-30T21:20:12.967Z,15.96
2022-11-30T21:22:42.457Z,15.99
2022-11-30T21:25:12.099Z,16.03
2022-11-30T21:27:41.901Z,16.05
2022-11-30T21:30:12.718Z,16.06
2022-11-30T21:32:42.007Z,16.02
2022-11-30T21:35:12.169Z,16.01
2022-11-30T21:37:41.951Z,15.97
2022-11-30T21:40:12.043Z,15.93
2022-11-30T21:42:41.621Z,15.91
2022-11-30T21:45:12.049Z,15.91
2022-11-30T21:47:41.969Z,15.87
2022-11-30T21:50:11.826Z,15.88
2022-11-30T21:52:41.424Z,15.82
2022-11-30T21:55:11.337Z,15.79
2022-11-30T21:57:41.532Z,15.82
2022-11-30T22:00:11.740Z,15.79
2022-11-30T22:02:41.554Z,15.82
2022-11-30T22:05:10.995Z,15.81
2022-11-30T22:07:40.425Z,15.82
2022-11-30T22:10:10.532Z,15.80
2022-11-30T22:12:39.911Z,15.76
2022-11-30T22:15:09.993Z,15.76
2022-11-30T22:17:39.759Z,15.78
2022-11-30T22:20:09.719Z,15.78
2022-11-30T22:22:41.908Z,15.79
2022-11-30T22:25:11.717Z,15.82
2022-11-30T22:27:41.366Z,15.80
2022-11-30T22:30:11.344Z,15.78
2022-11-30T22:32:43.450Z,15.78
2022-11-30T22:35:13.291Z,15.76
2022-11-30T22:37:42.734Z,15.76
2022-11-30T22:40:12.997Z,15.78
2022-11-30T22:42:42.766Z,15.74
2022-11-30T22:45:12.377Z,15.74
2022-11-30T22:47:41.844Z,15.71
2022-11-30T22:50:11.775Z,15.72
2022-11-30T22:53:02.033Z,15.79
2022-11-30T22:55:31.180Z,15.78
2022-11-30T22:58:01.364Z,15.76
2022-11-30T23:00:30.866Z,15.73
2022-11-30T23:03:00.358Z,15.73
2022-11-30T23:05:30.020Z,15.70
2022-11-30T23:07:59.472Z,15.65
2022-11-30T23:10:28.952Z,15.66
2022-11-30T23:13:00.067Z,15.65
2022-11-30T23:15:30.123Z,15.65
2022-11-30T23:17:59.588Z,15.60
2022-11-30T23:20:29.011Z,15.61
2022-11-30T23:22:58.486Z,15.64
2022-11-30T23:25:27.877Z,15.65
2022-11-30T23:27:57.163Z,15.65
2022-11-30T23:30:26.922Z,15.60
2022-11-30T23:32:57.390Z,15.64
2022-11-30T23:35:27.241Z,15.67
2022-11-30T23:37:56.770Z,15.68
2022-11-30T23:40:27.038Z,15.68
2022-11-30T23:42:56.753Z,15.69
2022-11-30T23:45:26.383Z,15.67
2022-11-30T23:47:56.037Z,15.65
2022-11-30T23:50:26.249Z,15.66
2022-11-30T23:52:55.770Z,15.62
2022-11-30T23:55:25.164Z,15.57
2022-11-30T23:57:54.767Z,15.55
